sensor_id;sensor_type;location;lat;lon;timestamp;pressure;altitude;pressure_sealevel;temperature;humidity
73101;BME280;61288;53.446;-2.266;2023-07-08T00:00:21;100928.69;;;19.71;100.00
73101;BME280;61288;53.446;-2.266;2023-07-08T00:02:48;100931.56;;;19.68;100.00
73101;BME280;61288;53.446;-2.266;2023-07-08T00:05:18;100932.66;;;19.65;100.00
73101;BME280;61288;53.446;-2.266;2023-07-08T00:07:44;100931.22;;;19.61;100.00
73101;BME280;61288;53.446;-2.266;2023-07-08T00:10:24;100923.41;;;19.59;100.00
73101;BME280;61288;53.446;-2.266;2023-07-08T00:12:52;100933.84;;;19.61;100.00
73101;BME280;61288;53.446;-2.266;2023-07-08T00:15:27;100930.34;;;19.60;100.00
73101;BME280;61288;53.446;-2.266;2023-07-08T00:17:52;100925.81;;;19.62;100.00
73101;BME280;61288;53.446;-2.266;2023-07-08T00:22:50;100929.53;;;19.60;100.00
73101;BME280;61288;53.446;-2.266;2023-07-08T00:25:16;100933.13;;;19.59;100.00
73101;BME280;61288;53.446;-2.266;2023-07-08T00:27:45;100929.63;;;19.58;100.00
73101;BME280;61288;53.446;-2.266;2023-07-08T00:30:19;100919.97;;;19.59;100.00
73101;BME280;61288;53.446;-2.266;2023-07-08T00:32:45;100924.28;;;19.60;100.00
73101;BME280;61288;53.446;-2.266;2023-07-08T00:35:10;100921.03;;;19.56;100.00
73101;BME280;61288;53.446;-2.266;2023-07-08T00:37:37;100916.81;;;19.54;100.00
73101;BME280;61288;53.446;-2.266;2023-07-08T00:40:17;100919.47;;;19.54;100.00
73101;BME280;61288;53.446;-2.266;2023-07-08T00:42:44;100918.63;;;19.53;100.00
73101;BME280;61288;53.446;-2.266;2023-07-08T00:45:24;100916.97;;;19.52;100.00
73101;BME280;61288;53.446;-2.266;2023-07-08T00:47:55;100920.63;;;19.49;100.00
73101;BME280;61288;53.446;-2.266;2023-07-08T00:50:22;100914.56;;;19.49;100.00
73101;BME280;61288;53.446;-2.266;2023-07-08T00:52:47;100914.81;;;19.46;100.00
73101;BME280;61288;53.446;-2.266;2023-07-08T00:55:13;100906.06;;;19.45;100.00
73101;BME280;61288;53.446;-2.266;2023-07-08T00:57:40;100899.97;;;19.45;100.00
73101;BME280;61288;53.446;-2.266;2023-07-08T01:00:13;100904.28;;;19.46;100.00
73101;BME280;61288;53.446;-2.266;2023-07-08T01:02:53;100908.09;;;19.42;100.00
73101;BME280;61288;53.446;-2.266;2023-07-08T01:05:23;100905.56;;;19.40;100.00
73101;BME280;61288;53.446;-2.266;2023-07-08T01:07:57;100897.59;;;19.42;100.00
73101;BME280;61288;53.446;-2.266;2023-07-08T01:10:46;100902.13;;;19.40;100.00
73101;BME280;61288;53.446;-2.266;2023-07-08T01:13:16;100890.28;;;19.34;100.00
73101;BME280;61288;53.446;-2.266;2023-07-08T01:15:43;100889.66;;;19.30;100.00
73101;BME280;61288;53.446;-2.266;2023-07-08T01:18:14;100888.09;;;19.28;100.00
73101;BME280;61288;53.446;-2.266;2023-07-08T01:20:42;100891.31;;;19.20;100.00
73101;BME280;61288;53.446;-2.266;2023-07-08T01:23:10;100887.22;;;19.16;100.00
73101;BME280;61288;53.446;-2.266;2023-07-08T01:25:36;100902.38;;;19.12;100.00
73101;BME280;61288;53.446;-2.266;2023-07-08T01:28:02;100894.94;;;19.06;100.00
73101;BME280;61288;53.446;-2.266;2023-07-08T01:30:29;100885.63;;;19.02;100.00
73101;BME280;61288;53.446;-2.266;2023-07-08T01:32:57;100884.91;;;19.00;100.00
73101;BME280;61288;53.446;-2.266;2023-07-08T01:35:24;100876.38;;;18.96;100.00
73101;BME280;61288;53.446;-2.266;2023-07-08T01:38:10;100869.56;;;18.94;100.00
73101;BME280;61288;53.446;-2.266;2023-07-08T01:40:47;100871.78;;;18.87;100.00
73101;BME280;61288;53.446;-2.266;2023-07-08T01:43:13;100870.44;;;18.81;100.00
73101;BME280;61288;53.446;-2.266;2023-07-08T01:45:41;100872.34;;;18.79;100.00
73101;BME280;61288;53.446;-2.266;2023-07-08T01:48:11;100872.69;;;18.74;100.00
73101;BME280;61288;53.446;-2.266;2023-07-08T01:50:39;100872.06;;;18.71;100.00
73101;BME280;61288;53.446;-2.266;2023-07-08T01:53:13;100866.19;;;18.67;100.00
73101;BME280;61288;53.446;-2.266;2023-07-08T01:55:39;100870.84;;;18.64;100.00
73101;BME280;61288;53.446;-2.266;2023-07-08T01:58:05;100857.09;;;18.60;100.00
73101;BME280;61288;53.446;-2.266;2023-07-08T02:00:31;100853.66;;;18.59;100.00
73101;BME280;61288;53.446;-2.266;2023-07-08T02:02:57;100859.84;;;18.58;100.00
73101;BME280;61288;53.446;-2.266;2023-07-08T02:05:23;100858.19;;;18.57;100.00
73101;BME280;61288;53.446;-2.266;2023-07-08T02:07:52;100845.88;;;18.58;100.00
73101;BME280;61288;53.446;-2.266;2023-07-08T02:10:18;100840.75;;;18.56;100.00
73101;BME280;61288;53.446;-2.266;2023-07-08T02:12:43;100841.56;;;18.57;100.00
73101;BME280;61288;53.446;-2.266;2023-07-08T02:15:09;100832.66;;;18.59;100.00
73101;BME280;61288;53.446;-2.266;2023-07-08T02:17:35;100836.09;;;18.60;100.00
73101;BME280;61288;53.446;-2.266;2023-07-08T02:20:00;100845.66;;;18.61;100.00
73101;BME280;61288;53.446;-2.266;2023-07-08T02:22:26;100837.69;;;18.62;100.00
73101;BME280;61288;53.446;-2.266;2023-07-08T02:24:52;100833.16;;;18.65;100.00
73101;BME280;61288;53.446;-2.266;2023-07-08T02:27:17;100832.06;;;18.67;100.00
73101;BME280;61288;53.446;-2.266;2023-07-08T02:29:43;100828.50;;;18.68;100.00
73101;BME280;61288;53.446;-2.266;2023-07-08T02:32:09;100820.63;;;18.68;100.00
73101;BME280;61288;53.446;-2.266;2023-07-08T02:34:36;100819.59;;;18.71;100.00
73101;BME280;61288;53.446;-2.266;2023-07-08T02:37:02;100816.81;;;18.72;100.00
73101;BME280;61288;53.446;-2.266;2023-07-08T02:39:27;100812.09;;;18.77;100.00
73101;BME280;61288;53.446;-2.266;2023-07-08T02:41:53;100809.34;;;18.79;100.00
73101;BME280;61288;53.446;-2.266;2023-07-08T02:44:18;100801.38;;;18.81;100.00
73101;BME280;61288;53.446;-2.266;2023-07-08T02:46:44;100802.09;;;18.83;100.00
73101;BME280;61288;53.446;-2.266;2023-07-08T02:49:10;100796.63;;;18.86;100.00
73101;BME280;61288;53.446;-2.266;2023-07-08T02:51:35;100794.63;;;18.89;100.00
73101;BME280;61288;53.446;-2.266;2023-07-08T02:54:01;100793.66;;;18.90;100.00
73101;BME280;61288;53.446;-2.266;2023-07-08T02:56:27;100800.59;;;18.91;100.00
73101;BME280;61288;53.446;-2.266;2023-07-08T02:58:53;100799.50;;;18.94;100.00
73101;BME280;61288;53.446;-2.266;2023-07-08T03:01:19;100793.28;;;18.95;100.00
73101;BME280;61288;53.446;-2.266;2023-07-08T03:03:46;100794.47;;;18.91;100.00
73101;BME280;61288;53.446;-2.266;2023-07-08T03:06:12;100783.25;;;18.89;100.00
73101;BME280;61288;53.446;-2.266;2023-07-08T03:08:37;100778.63;;;18.93;100.00
73101;BME280;61288;53.446;-2.266;2023-07-08T03:11:05;100777.44;;;18.97;100.00
73101;BME280;61288;53.446;-2.266;2023-07-08T03:13:32;100784.41;;;18.98;100.00
73101;BME280;61288;53.446;-2.266;2023-07-08T03:15:59;100772.19;;;18.97;100.00
73101;BME280;61288;53.446;-2.266;2023-07-08T03:18:25;100760.75;;;18.98;100.00
73101;BME280;61288;53.446;-2.266;2023-07-08T03:20:53;100767.69;;;18.99;100.00
73101;BME280;61288;53.446;-2.266;2023-07-08T03:23:21;100771.13;;;18.99;100.00
73101;BME280;61288;53.446;-2.266;2023-07-08T03:25:47;100761.59;;;18.98;100.00
73101;BME280;61288;53.446;-2.266;2023-07-08T03:28:13;100766.00;;;18.98;100.00
73101;BME280;61288;53.446;-2.266;2023-07-08T03:30:43;100759.81;;;18.99;100.00
73101;BME280;61288;53.446;-2.266;2023-07-08T03:33:10;100762.44;;;18.99;100.00
73101;BME280;61288;53.446;-2.266;2023-07-08T03:35:36;100757.25;;;18.97;100.00
73101;BME280;61288;53.446;-2.266;2023-07-08T03:38:04;100756.53;;;18.95;100.00
73101;BME280;61288;53.446;-2.266;2023-07-08T03:40:30;100758.34;;;18.95;100.00
73101;BME280;61288;53.446;-2.266;2023-07-08T03:42:57;100755.00;;;18.93;100.00
73101;BME280;61288;53.446;-2.266;2023-07-08T03:45:23;100755.00;;;18.93;100.00
73101;BME280;61288;53.446;-2.266;2023-07-08T03:47:48;100748.78;;;18.94;100.00
73101;BME280;61288;53.446;-2.266;2023-07-08T03:50:19;100745.22;;;18.95;100.00
73101;BME280;61288;53.446;-2.266;2023-07-08T03:52:50;100754.03;;;18.94;100.00
73101;BME280;61288;53.446;-2.266;2023-07-08T03:55:17;100745.94;;;18.97;100.00
73101;BME280;61288;53.446;-2.266;2023-07-08T03:57:43;100752.88;;;18.98;100.00
73101;BME280;61288;53.446;-2.266;2023-07-08T04:00:09;100754.56;;;18.99;100.00
73101;BME280;61288;53.446;-2.266;2023-07-08T04:02:38;100748.34;;;19.00;100.00
73101;BME280;61288;53.446;-2.266;2023-07-08T04:05:04;100751.69;;;19.02;100.00
73101;BME280;61288;53.446;-2.266;2023-07-08T04:07:30;100753.25;;;19.04;100.00
73101;BME280;61288;53.446;-2.266;2023-07-08T04:09:55;100753.13;;;19.06;100.00
73101;BME280;61288;53.446;-2.266;2023-07-08T04:12:21;100756.63;;;19.07;100.00
73101;BME280;61288;53.446;-2.266;2023-07-08T04:14:46;100757.34;;;19.09;100.00
73101;BME280;61288;53.446;-2.266;2023-07-08T04:17:12;100762.34;;;19.12;100.00
73101;BME280;61288;53.446;-2.266;2023-07-08T04:19:38;100752.66;;;19.12;100.00
73101;BME280;61288;53.446;-2.266;2023-07-08T04:22:09;100748.97;;;19.15;100.00
73101;BME280;61288;53.446;-2.266;2023-07-08T04:24:35;100754.09;;;19.16;100.00
73101;BME280;61288;53.446;-2.266;2023-07-08T04:27:01;100748.75;;;19.18;100.00
73101;BME280;61288;53.446;-2.266;2023-07-08T04:29:27;100743.34;;;19.19;100.00
73101;BME280;61288;53.446;-2.266;2023-07-08T04:31:52;100746.13;;;19.18;100.00
73101;BME280;61288;53.446;-2.266;2023-07-08T04:34:19;100741.69;;;19.18;100.00
73101;BME280;61288;53.446;-2.266;2023-07-08T04:36:45;100747.56;;;19.22;100.00
73101;BME280;61288;53.446;-2.266;2023-07-08T04:39:11;100746.50;;;19.25;100.00
73101;BME280;61288;53.446;-2.266;2023-07-08T04:41:37;100754.25;;;19.26;100.00
73101;BME280;61288;53.446;-2.266;2023-07-08T04:44:08;100754.84;;;19.30;100.00
73101;BME280;61288;53.446;-2.266;2023-07-08T04:46:40;100755.44;;;19.33;100.00
73101;BME280;61288;53.446;-2.266;2023-07-08T04:49:07;100749.00;;;19.38;100.00
73101;BME280;61288;53.446;-2.266;2023-07-08T04:51:36;100741.84;;;19.40;100.00
73101;BME280;61288;53.446;-2.266;2023-07-08T04:54:02;100747.69;;;19.43;100.00
73101;BME280;61288;53.446;-2.266;2023-07-08T04:56:40;100751.03;;;19.45;100.00
73101;BME280;61288;53.446;-2.266;2023-07-08T04:59:11;100755.22;;;19.48;100.00
73101;BME280;61288;53.446;-2.266;2023-07-08T05:01:37;100759.28;;;19.52;100.00
73101;BME280;61288;53.446;-2.266;2023-07-08T05:04:03;100758.09;;;19.56;100.00
73101;BME280;61288;53.446;-2.266;2023-07-08T05:06:49;100762.84;;;19.62;100.00
73101;BME280;61288;53.446;-2.266;2023-07-08T05:09:15;100763.47;;;19.66;100.00
73101;BME280;61288;53.446;-2.266;2023-07-08T05:11:41;100758.91;;;19.68;100.00
73101;BME280;61288;53.446;-2.266;2023-07-08T05:14:06;100764.19;;;19.68;100.00
73101;BME280;61288;53.446;-2.266;2023-07-08T05:16:33;100762.13;;;19.72;100.00
73101;BME280;61288;53.446;-2.266;2023-07-08T05:19:01;100755.81;;;19.74;100.00
73101;BME280;61288;53.446;-2.266;2023-07-08T05:21:29;100747.81;;;19.76;100.00
73101;BME280;61288;53.446;-2.266;2023-07-08T05:23:58;100756.16;;;19.81;100.00
73101;BME280;61288;53.446;-2.266;2023-07-08T05:26:24;100756.50;;;19.88;100.00
73101;BME280;61288;53.446;-2.266;2023-07-08T05:28:49;100758.19;;;19.89;100.00
73101;BME280;61288;53.446;-2.266;2023-07-08T05:31:14;100761.56;;;19.91;100.00
73101;BME280;61288;53.446;-2.266;2023-07-08T05:33:40;100761.31;;;19.94;100.00
73101;BME280;61288;53.446;-2.266;2023-07-08T05:36:06;100767.41;;;19.95;100.00
73101;BME280;61288;53.446;-2.266;2023-07-08T05:38:31;100763.00;;;19.95;100.00
73101;BME280;61288;53.446;-2.266;2023-07-08T05:40:58;100769.47;;;19.91;100.00
73101;BME280;61288;53.446;-2.266;2023-07-08T05:43:24;100775.75;;;19.88;100.00
73101;BME280;61288;53.446;-2.266;2023-07-08T05:45:51;100770.84;;;19.84;100.00
73101;BME280;61288;53.446;-2.266;2023-07-08T05:48:17;100766.78;;;19.80;100.00
73101;BME280;61288;53.446;-2.266;2023-07-08T05:50:44;100772.44;;;19.75;100.00
73101;BME280;61288;53.446;-2.266;2023-07-08T05:53:11;100759.38;;;19.73;100.00
73101;BME280;61288;53.446;-2.266;2023-07-08T05:55:37;100770.00;;;19.72;100.00
73101;BME280;61288;53.446;-2.266;2023-07-08T05:58:02;100770.88;;;19.72;100.00
73101;BME280;61288;53.446;-2.266;2023-07-08T06:00:28;100777.78;;;19.73;100.00
73101;BME280;61288;53.446;-2.266;2023-07-08T06:02:53;100786.38;;;19.75;100.00
73101;BME280;61288;53.446;-2.266;2023-07-08T06:05:19;100787.00;;;19.79;100.00
73101;BME280;61288;53.446;-2.266;2023-07-08T06:07:44;100785.56;;;19.86;100.00
73101;BME280;61288;53.446;-2.266;2023-07-08T06:10:10;100791.31;;;19.91;100.00
73101;BME280;61288;53.446;-2.266;2023-07-08T06:12:35;100807.31;;;20.00;100.00
73101;BME280;61288;53.446;-2.266;2023-07-08T06:15:01;100829.06;;;20.13;100.00
73101;BME280;61288;53.446;-2.266;2023-07-08T06:17:29;100817.91;;;20.32;100.00
73101;BME280;61288;53.446;-2.266;2023-07-08T06:19:55;100814.44;;;20.43;100.00
73101;BME280;61288;53.446;-2.266;2023-07-08T06:22:23;100824.81;;;20.56;100.00
73101;BME280;61288;53.446;-2.266;2023-07-08T06:24:48;100826.06;;;20.62;100.00
73101;BME280;61288;53.446;-2.266;2023-07-08T06:27:14;100836.00;;;20.70;100.00
73101;BME280;61288;53.446;-2.266;2023-07-08T06:29:39;100841.72;;;20.75;100.00
73101;BME280;61288;53.446;-2.266;2023-07-08T06:32:06;100849.84;;;20.83;100.00
73101;BME280;61288;53.446;-2.266;2023-07-08T06:34:31;100847.44;;;20.91;100.00
73101;BME280;61288;53.446;-2.266;2023-07-08T06:36:57;100851.34;;;20.97;100.00
73101;BME280;61288;53.446;-2.266;2023-07-08T06:39:22;100839.81;;;21.10;100.00
73101;BME280;61288;53.446;-2.266;2023-07-08T06:41:48;100840.72;;;21.20;100.00
73101;BME280;61288;53.446;-2.266;2023-07-08T06:44:13;100838.41;;;21.27;100.00
73101;BME280;61288;53.446;-2.266;2023-07-08T06:46:39;100836.75;;;21.35;100.00
73101;BME280;61288;53.446;-2.266;2023-07-08T06:49:05;100848.47;;;21.43;100.00
73101;BME280;61288;53.446;-2.266;2023-07-08T06:51:34;100846.34;;;21.58;100.00
73101;BME280;61288;53.446;-2.266;2023-07-08T06:54:02;100844.94;;;21.75;100.00
73101;BME280;61288;53.446;-2.266;2023-07-08T06:56:40;100864.59;;;21.92;100.00
73101;BME280;61288;53.446;-2.266;2023-07-08T06:59:07;100849.34;;;22.05;100.00
73101;BME280;61288;53.446;-2.266;2023-07-08T07:01:33;100850.63;;;22.11;100.00
73101;BME280;61288;53.446;-2.266;2023-07-08T07:03:58;100848.84;;;22.21;100.00
73101;BME280;61288;53.446;-2.266;2023-07-08T07:06:24;100854.97;;;22.32;100.00
73101;BME280;61288;53.446;-2.266;2023-07-08T07:08:50;100847.34;;;22.39;100.00
73101;BME280;61288;53.446;-2.266;2023-07-08T07:11:15;100852.94;;;22.45;100.00
73101;BME280;61288;53.446;-2.266;2023-07-08T07:13:41;100851.31;;;22.54;100.00
73101;BME280;61288;53.446;-2.266;2023-07-08T07:16:06;100861.72;;;22.65;100.00
73101;BME280;61288;53.446;-2.266;2023-07-08T07:18:32;100868.00;;;22.74;100.00
73101;BME280;61288;53.446;-2.266;2023-07-08T07:20:58;100871.75;;;22.82;100.00
73101;BME280;61288;53.446;-2.266;2023-07-08T07:23:24;100880.78;;;22.89;100.00
73101;BME280;61288;53.446;-2.266;2023-07-08T07:25:50;100865.34;;;22.94;100.00
73101;BME280;61288;53.446;-2.266;2023-07-08T07:28:16;100873.56;;;23.01;100.00
73101;BME280;61288;53.446;-2.266;2023-07-08T07:30:45;100863.81;;;23.01;100.00
73101;BME280;61288;53.446;-2.266;2023-07-08T07:33:12;100869.13;;;22.91;100.00
73101;BME280;61288;53.446;-2.266;2023-07-08T07:35:44;100876.34;;;22.89;100.00
73101;BME280;61288;53.446;-2.266;2023-07-08T07:38:11;100873.84;;;22.98;100.00
73101;BME280;61288;53.446;-2.266;2023-07-08T07:40:36;100867.72;;;23.07;100.00
73101;BME280;61288;53.446;-2.266;2023-07-08T07:43:02;100853.94;;;23.13;100.00
73101;BME280;61288;53.446;-2.266;2023-07-08T07:45:27;100850.88;;;23.18;100.00
73101;BME280;61288;53.446;-2.266;2023-07-08T07:47:53;100852.94;;;23.24;100.00
73101;BME280;61288;53.446;-2.266;2023-07-08T07:50:18;100856.31;;;23.26;100.00
73101;BME280;61288;53.446;-2.266;2023-07-08T07:52:44;100855.91;;;23.31;100.00
73101;BME280;61288;53.446;-2.266;2023-07-08T07:55:09;100857.25;;;23.45;100.00
73101;BME280;61288;53.446;-2.266;2023-07-08T07:57:35;100861.25;;;23.59;100.00
73101;BME280;61288;53.446;-2.266;2023-07-08T08:00:00;100863.59;;;23.72;100.00
73101;BME280;61288;53.446;-2.266;2023-07-08T08:02:26;100863.97;;;23.77;100.00
73101;BME280;61288;53.446;-2.266;2023-07-08T08:04:51;100869.78;;;23.80;100.00
73101;BME280;61288;53.446;-2.266;2023-07-08T08:07:17;100878.19;;;23.76;100.00
73101;BME280;61288;53.446;-2.266;2023-07-08T08:09:42;100877.22;;;23.67;100.00
73101;BME280;61288;53.446;-2.266;2023-07-08T08:12:10;100883.09;;;23.61;100.00
73101;BME280;61288;53.446;-2.266;2023-07-08T08:14:37;100884.50;;;23.55;100.00
73101;BME280;61288;53.446;-2.266;2023-07-08T08:17:03;100886.75;;;23.50;100.00
73101;BME280;61288;53.446;-2.266;2023-07-08T08:19:29;100882.03;;;23.44;100.00
73101;BME280;61288;53.446;-2.266;2023-07-08T08:21:54;100885.50;;;23.44;100.00
73101;BME280;61288;53.446;-2.266;2023-07-08T08:24:20;100892.59;;;23.44;100.00
73101;BME280;61288;53.446;-2.266;2023-07-08T08:26:46;100889.97;;;23.44;100.00
73101;BME280;61288;53.446;-2.266;2023-07-08T08:29:11;100891.34;;;23.48;100.00
73101;BME280;61288;53.446;-2.266;2023-07-08T08:31:37;100893.81;;;23.49;100.00
73101;BME280;61288;53.446;-2.266;2023-07-08T08:34:02;100896.91;;;23.55;100.00
73101;BME280;61288;53.446;-2.266;2023-07-08T08:36:28;100901.06;;;23.57;100.00
73101;BME280;61288;53.446;-2.266;2023-07-08T08:38:53;100912.72;;;23.64;100.00
73101;BME280;61288;53.446;-2.266;2023-07-08T08:41:31;100899.94;;;23.60;100.00
73101;BME280;61288;53.446;-2.266;2023-07-08T08:43:58;100911.34;;;23.60;100.00
73101;BME280;61288;53.446;-2.266;2023-07-08T08:52:00;100933.34;;;23.61;100.00
73101;BME280;61288;53.446;-2.266;2023-07-08T08:54:26;100933.47;;;23.59;100.00
73101;BME280;61288;53.446;-2.266;2023-07-08T08:56:54;100931.41;;;23.63;100.00
73101;BME280;61288;53.446;-2.266;2023-07-08T08:59:54;100939.47;;;23.61;100.00
73101;BME280;61288;53.446;-2.266;2023-07-08T09:02:33;100949.06;;;23.62;100.00
73101;BME280;61288;53.446;-2.266;2023-07-08T09:05:06;100950.03;;;23.61;100.00
73101;BME280;61288;53.446;-2.266;2023-07-08T09:13:07;100962.59;;;23.59;100.00
73101;BME280;61288;53.446;-2.266;2023-07-08T09:15:38;100956.19;;;23.52;100.00
73101;BME280;61288;53.446;-2.266;2023-07-08T09:18:25;100962.88;;;23.56;100.00
73101;BME280;61288;53.446;-2.266;2023-07-08T09:20:55;100954.66;;;23.59;100.00
73101;BME280;61288;53.446;-2.266;2023-07-08T09:23:25;100954.25;;;23.54;100.00
73101;BME280;61288;53.446;-2.266;2023-07-08T09:26:19;100953.41;;;23.54;100.00
73101;BME280;61288;53.446;-2.266;2023-07-08T09:28:46;100951.72;;;23.52;100.00
73101;BME280;61288;53.446;-2.266;2023-07-08T09:31:22;100961.34;;;23.54;100.00
73101;BME280;61288;53.446;-2.266;2023-07-08T09:33:51;100965.38;;;23.58;100.00
73101;BME280;61288;53.446;-2.266;2023-07-08T09:36:21;100967.16;;;23.67;100.00
73101;BME280;61288;53.446;-2.266;2023-07-08T09:38:48;100960.19;;;23.76;100.00
73101;BME280;61288;53.446;-2.266;2023-07-08T09:41:29;100967.84;;;23.89;100.00
73101;BME280;61288;53.446;-2.266;2023-07-08T09:44:04;100965.28;;;23.97;100.00
73101;BME280;61288;53.446;-2.266;2023-07-08T09:46:35;100967.25;;;24.05;100.00
73101;BME280;61288;53.446;-2.266;2023-07-08T09:49:23;100975.03;;;23.97;100.00
73101;BME280;61288;53.446;-2.266;2023-07-08T09:51:50;100988.72;;;23.92;100.00
73101;BME280;61288;53.446;-2.266;2023-07-08T09:54:19;100984.53;;;23.89;100.00
73101;BME280;61288;53.446;-2.266;2023-07-08T09:57:09;100989.13;;;23.87;100.00
73101;BME280;61288;53.446;-2.266;2023-07-08T09:59:47;100997.75;;;23.89;100.00
73101;BME280;61288;53.446;-2.266;2023-07-08T10:02:49;100999.72;;;23.87;100.00
73101;BME280;61288;53.446;-2.266;2023-07-08T10:05:30;101013.63;;;23.89;100.00
73101;BME280;61288;53.446;-2.266;2023-07-08T10:07:58;101017.94;;;23.90;100.00
73101;BME280;61288;53.446;-2.266;2023-07-08T10:10:28;101023.41;;;23.89;100.00
73101;BME280;61288;53.446;-2.266;2023-07-08T10:13:01;101024.09;;;23.91;100.00
73101;BME280;61288;53.446;-2.266;2023-07-08T10:15:33;101033.53;;;23.93;100.00
73101;BME280;61288;53.446;-2.266;2023-07-08T10:18:01;101027.84;;;23.98;100.00
73101;BME280;61288;53.446;-2.266;2023-07-08T10:20:35;101032.03;;;23.91;100.00
73101;BME280;61288;53.446;-2.266;2023-07-08T10:23:38;101048.03;;;23.89;100.00
73101;BME280;61288;53.446;-2.266;2023-07-08T10:26:17;101050.84;;;23.88;100.00
73101;BME280;61288;53.446;-2.266;2023-07-08T10:32:00;101047.06;;;23.80;100.00
73101;BME280;61288;53.446;-2.266;2023-07-08T10:42:03;101056.41;;;23.65;100.00
73101;BME280;61288;53.446;-2.266;2023-07-08T10:50:54;101076.31;;;23.59;100.00
73101;BME280;61288;53.446;-2.266;2023-07-08T10:53:26;101068.66;;;23.56;100.00
73101;BME280;61288;53.446;-2.266;2023-07-08T10:55:59;101078.41;;;23.56;100.00
73101;BME280;61288;53.446;-2.266;2023-07-08T10:58:50;101082.72;;;23.57;100.00
73101;BME280;61288;53.446;-2.266;2023-07-08T11:01:40;101081.06;;;23.56;100.00
73101;BME280;61288;53.446;-2.266;2023-07-08T11:04:16;101084.53;;;23.56;100.00
73101;BME280;61288;53.446;-2.266;2023-07-08T11:06:54;101088.84;;;23.57;100.00
73101;BME280;61288;53.446;-2.266;2023-07-08T11:09:37;101098.44;;;23.48;100.00
73101;BME280;61288;53.446;-2.266;2023-07-08T11:12:26;101104.44;;;23.41;100.00
73101;BME280;61288;53.446;-2.266;2023-07-08T11:17:44;101110.47;;;23.21;100.00
73101;BME280;61288;53.446;-2.266;2023-07-08T11:20:26;101126.56;;;23.08;100.00
73101;BME280;61288;53.446;-2.266;2023-07-08T11:23:08;101129.31;;;22.97;100.00
73101;BME280;61288;53.446;-2.266;2023-07-08T11:25:37;101122.16;;;22.57;100.00
73101;BME280;61288;53.446;-2.266;2023-07-08T11:28:23;101114.88;;;22.28;100.00
73101;BME280;61288;53.446;-2.266;2023-07-08T11:30:51;101124.91;;;22.13;100.00
73101;BME280;61288;53.446;-2.266;2023-07-08T11:33:20;101146.34;;;21.98;100.00
73101;BME280;61288;53.446;-2.266;2023-07-08T11:35:57;101142.53;;;21.91;100.00
73101;BME280;61288;53.446;-2.266;2023-07-08T11:38:25;101141.94;;;21.87;100.00
73101;BME280;61288;53.446;-2.266;2023-07-08T11:40:58;101163.41;;;21.83;100.00
73101;BME280;61288;53.446;-2.266;2023-07-08T11:43:27;101163.41;;;21.83;100.00
73101;BME280;61288;53.446;-2.266;2023-07-08T11:45:56;101168.22;;;21.77;100.00
73101;BME280;61288;53.446;-2.266;2023-07-08T11:48:31;101172.22;;;21.72;100.00
73101;BME280;61288;53.446;-2.266;2023-07-08T11:51:04;101183.94;;;21.68;100.00
73101;BME280;61288;53.446;-2.266;2023-07-08T11:53:37;101187.69;;;21.65;100.00
73101;BME280;61288;53.446;-2.266;2023-07-08T11:56:19;101181.06;;;21.59;100.00
73101;BME280;61288;53.446;-2.266;2023-07-08T12:04:51;101193.66;;;21.56;100.00
73101;BME280;61288;53.446;-2.266;2023-07-08T12:09:45;101148.50;;;21.49;100.00
73101;BME280;61288;53.446;-2.266;2023-07-08T12:12:24;101146.22;;;21.44;100.00
73101;BME280;61288;53.446;-2.266;2023-07-08T12:15:23;101156.91;;;21.43;100.00
73101;BME280;61288;53.446;-2.266;2023-07-08T12:17:55;101144.44;;;21.33;100.00
73101;BME280;61288;53.446;-2.266;2023-07-08T12:20:27;101149.69;;;21.33;100.00
73101;BME280;61288;53.446;-2.266;2023-07-08T12:22:54;101152.47;;;21.32;100.00
73101;BME280;61288;53.446;-2.266;2023-07-08T12:25:22;101162.16;;;21.31;100.00
73101;BME280;61288;53.446;-2.266;2023-07-08T12:27:49;101167.56;;;21.30;100.00
73101;BME280;61288;53.446;-2.266;2023-07-08T12:30:16;101171.41;;;21.26;100.00
73101;BME280;61288;53.446;-2.266;2023-07-08T12:32:43;101155.69;;;21.24;100.00
73101;BME280;61288;53.446;-2.266;2023-07-08T12:35:21;101159.66;;;21.18;100.00
73101;BME280;61288;53.446;-2.266;2023-07-08T12:37:50;101150.06;;;21.17;100.00
73101;BME280;61288;53.446;-2.266;2023-07-08T12:40:15;101151.03;;;21.16;100.00
73101;BME280;61288;53.446;-2.266;2023-07-08T12:42:41;101152.47;;;21.20;100.00
73101;BME280;61288;53.446;-2.266;2023-07-08T12:45:20;101156.41;;;21.26;100.00
73101;BME280;61288;53.446;-2.266;2023-07-08T12:47:46;101153.75;;;21.38;100.00
73101;BME280;61288;53.446;-2.266;2023-07-08T12:50:13;101149.41;;;21.59;100.00
73101;BME280;61288;53.446;-2.266;2023-07-08T12:52:39;101151.31;;;21.80;100.00
73101;BME280;61288;53.446;-2.266;2023-07-08T12:55:11;101151.38;;;22.01;100.00
73101;BME280;61288;53.446;-2.266;2023-07-08T12:57:37;101140.97;;;22.21;100.00
73101;BME280;61288;53.446;-2.266;2023-07-08T13:00:05;101131.38;;;22.41;100.00
73101;BME280;61288;53.446;-2.266;2023-07-08T13:02:32;101109.34;;;22.52;100.00
73101;BME280;61288;53.446;-2.266;2023-07-08T13:05:02;101101.81;;;22.69;100.00
73101;BME280;61288;53.446;-2.266;2023-07-08T13:07:34;101101.91;;;22.88;100.00
73101;BME280;61288;53.446;-2.266;2023-07-08T13:10:01;101095.38;;;23.02;100.00
73101;BME280;61288;53.446;-2.266;2023-07-08T13:12:27;101085.25;;;23.07;100.00
73101;BME280;61288;53.446;-2.266;2023-07-08T13:14:56;101066.88;;;23.06;100.00
73101;BME280;61288;53.446;-2.266;2023-07-08T13:17:23;101068.41;;;22.99;100.00
73101;BME280;61288;53.446;-2.266;2023-07-08T13:19:49;101060.88;;;22.94;100.00
73101;BME280;61288;53.446;-2.266;2023-07-08T13:22:19;101056.97;;;22.88;100.00